IRA990T HEPS-OIIE
Flight info
| Callsign | IRA990T |
|---|---|
| Flight time | 2h 31m |
| Altitude | 39000 |
| Route | GODED N134 OSAMA L200 LUDAN/N0445F380 A412 DAXEN/N0450F390 L200 GIBUX R652 RAPLU G202 ILM B411 SAV |
| Aircraft | A343/H-SDE2E3FGHIJ4J5M1RWXY/LB1D1 |
Departure
| Time | 2026-05-04 18:04 |
|---|---|
| Airport | Port Said International Airport (HEPS) |
Arrival
| Time | 2026-05-04 20:35 |
|---|---|
| Airport | Imam Khomeini International Airport (OIIE) |
| Time | Latitude | Longitude | Altitude | Speed | Heading |
|---|---|---|---|---|---|
| 2026-05-04 17:44 | 31.27967 | 32.24397 | 18 ft | 0 kts | 39° |
| 2026-05-04 18:00 | 31.27970 | 32.24403 | 18 ft | 0 kts | 58° |
| 2026-05-04 18:00 | 31.27972 | 32.24409 | 18 ft | 2 kts | 64° |
| 2026-05-04 18:00 | 31.27971 | 32.24415 | 18 ft | 0 kts | 90° |
| 2026-05-04 18:00 | 31.27970 | 32.24419 | 17 ft | 0 kts | 102° |
| 2026-05-04 18:01 | 31.27952 | 32.24431 | 17 ft | 10 kts | 160° |
| 2026-05-04 18:01 | 31.27807 | 32.24549 | 19 ft | 40 kts | 110° |
| 2026-05-04 18:01 | 31.27698 | 32.24930 | 16 ft | 57 kts | 109° |
| 2026-05-04 18:02 | 31.27667 | 32.25171 | 15 ft | 4 kts | 351° |
| 2026-05-04 18:02 | 31.27683 | 32.25134 | 14 ft | 12 kts | 279° |
| 2026-05-04 18:02 | 31.27683 | 32.25123 | 14 ft | 0 kts | 269° |
| 2026-05-04 18:02 | 31.27683 | 32.25113 | 14 ft | 2 kts | 269° |
| 2026-05-04 18:03 | 31.27682 | 32.25091 | 14 ft | 3 kts | 269° |
| 2026-05-04 18:03 | 31.27688 | 32.25060 | 15 ft | 7 kts | 285° |
| 2026-05-04 18:03 | 31.27749 | 32.24799 | 16 ft | 68 kts | 285° |
| 2026-05-04 18:03 | 31.27950 | 32.23982 | 17 ft | 139 kts | 285° |
| 2026-05-04 18:04 | 31.28243 | 32.22706 | 302 ft | 175 kts | 284° |
| 2026-05-04 18:04 | 31.28554 | 32.21317 | 1080 ft | 177 kts | 292° |
| 2026-05-04 18:04 | 31.30614 | 32.19886 | 2509 ft | 187 kts | 341° |
| 2026-05-04 18:05 | 31.31965 | 32.19592 | 2838 ft | 211 kts | 7° |
| 2026-05-04 18:05 | 31.33327 | 32.20418 | 3170 ft | 237 kts | 49° |
| 2026-05-04 18:05 | 31.33987 | 32.22166 | 3642 ft | 246 kts | 85° |
| 2026-05-04 18:05 | 31.33761 | 32.24160 | 4142 ft | 251 kts | 105° |
| 2026-05-04 18:06 | 31.32742 | 32.28145 | 5205 ft | 259 kts | 105° |
| 2026-05-04 18:06 | 31.32396 | 32.30224 | 5725 ft | 264 kts | 88° |
| 2026-05-04 18:06 | 31.32714 | 32.32340 | 6557 ft | 265 kts | 73° |
| 2026-05-04 18:07 | 31.33345 | 32.34372 | 7448 ft | 267 kts | 67° |
| 2026-05-04 18:07 | 31.34127 | 32.36358 | 8279 ft | 270 kts | 64° |
| 2026-05-04 18:07 | 31.34970 | 32.38341 | 9074 ft | 274 kts | 63° |
| 2026-05-04 18:07 | 31.35823 | 32.40342 | 9843 ft | 277 kts | 64° |
| 2026-05-04 18:08 | 31.36676 | 32.42397 | 10456 ft | 287 kts | 64° |
| 2026-05-04 18:08 | 31.37551 | 32.44579 | 10777 ft | 306 kts | 65° |
| 2026-05-04 18:08 | 31.38460 | 32.46907 | 11124 ft | 322 kts | 65° |
| 2026-05-04 18:08 | 31.39392 | 32.49337 | 11613 ft | 331 kts | 66° |
| 2026-05-04 18:09 | 31.41293 | 32.54338 | 12880 ft | 341 kts | 66° |
| 2026-05-04 18:09 | 31.43242 | 32.59468 | 14183 ft | 348 kts | 66° |
| 2026-05-04 18:10 | 31.44231 | 32.62067 | 14824 ft | 352 kts | 66° |
| 2026-05-04 18:10 | 31.45232 | 32.64699 | 15454 ft | 355 kts | 66° |
| 2026-05-04 18:10 | 31.46240 | 32.67349 | 16078 ft | 358 kts | 66° |
| 2026-05-04 18:10 | 31.47258 | 32.70027 | 16694 ft | 362 kts | 66° |
| 2026-05-04 18:11 | 31.48285 | 32.72731 | 17283 ft | 365 kts | 66° |
| 2026-05-04 18:11 | 31.49321 | 32.75460 | 17879 ft | 368 kts | 66° |
| 2026-05-04 18:11 | 31.50364 | 32.78209 | 18470 ft | 371 kts | 66° |
| 2026-05-04 18:11 | 31.51417 | 32.80989 | 19017 ft | 374 kts | 66° |
| 2026-05-04 18:12 | 31.52475 | 32.83783 | 19574 ft | 377 kts | 66° |
| 2026-05-04 18:12 | 31.53546 | 32.86614 | 20106 ft | 381 kts | 66° |
| 2026-05-04 18:12 | 31.54622 | 32.89460 | 20633 ft | 384 kts | 66° |
| 2026-05-04 18:12 | 31.55706 | 32.92331 | 21141 ft | 387 kts | 66° |
| 2026-05-04 18:13 | 31.56797 | 32.95222 | 21644 ft | 389 kts | 66° |
| 2026-05-04 18:13 | 31.57897 | 32.98138 | 22114 ft | 392 kts | 66° |
| 2026-05-04 18:13 | 31.60118 | 33.04037 | 23047 ft | 398 kts | 66° |
| 2026-05-04 18:14 | 31.61238 | 33.07015 | 23482 ft | 401 kts | 66° |
| 2026-05-04 18:14 | 31.62365 | 33.10013 | 23910 ft | 403 kts | 66° |
| 2026-05-04 18:14 | 31.63499 | 33.13033 | 24310 ft | 406 kts | 66° |
| 2026-05-04 18:15 | 31.65786 | 33.19133 | 25132 ft | 411 kts | 66° |
| 2026-05-04 18:15 | 31.68081 | 33.25265 | 25877 ft | 415 kts | 66° |
| 2026-05-04 18:15 | 31.69246 | 33.28381 | 26241 ft | 418 kts | 66° |
| 2026-05-04 18:16 | 31.70416 | 33.31516 | 26606 ft | 420 kts | 66° |
| 2026-05-04 18:16 | 31.71592 | 33.34666 | 26936 ft | 422 kts | 66° |
| 2026-05-04 18:16 | 31.72772 | 33.37832 | 27276 ft | 424 kts | 66° |
| 2026-05-04 18:17 | 31.75150 | 33.44220 | 27935 ft | 429 kts | 66° |
| 2026-05-04 18:17 | 31.76346 | 33.47436 | 28234 ft | 431 kts | 66° |
| 2026-05-04 18:17 | 31.78752 | 33.53918 | 28830 ft | 435 kts | 66° |
| 2026-05-04 18:18 | 31.79962 | 33.57183 | 29120 ft | 437 kts | 66° |
| 2026-05-04 18:18 | 31.81176 | 33.60460 | 29403 ft | 439 kts | 66° |
| 2026-05-04 18:18 | 31.82396 | 33.63760 | 29678 ft | 440 kts | 66° |
| 2026-05-04 18:18 | 31.83621 | 33.67071 | 29947 ft | 442 kts | 66° |
| 2026-05-04 18:19 | 31.86079 | 33.73731 | 30463 ft | 446 kts | 66° |
| 2026-05-04 18:19 | 31.87314 | 33.77084 | 30712 ft | 447 kts | 66° |
| 2026-05-04 18:19 | 31.88552 | 33.80446 | 30956 ft | 449 kts | 66° |
| 2026-05-04 18:20 | 31.89796 | 33.83828 | 31193 ft | 451 kts | 66° |
| 2026-05-04 18:20 | 31.91043 | 33.87222 | 31436 ft | 452 kts | 66° |
| 2026-05-04 18:20 | 31.92292 | 33.90625 | 31643 ft | 454 kts | 66° |
| 2026-05-04 18:20 | 31.93544 | 33.94039 | 31907 ft | 455 kts | 66° |
| 2026-05-04 18:21 | 31.94796 | 33.97457 | 32225 ft | 454 kts | 66° |
| 2026-05-04 18:21 | 31.96044 | 34.00866 | 32520 ft | 453 kts | 66° |
| 2026-05-04 18:21 | 31.97287 | 34.04266 | 32809 ft | 452 kts | 66° |
| 2026-05-04 18:21 | 31.98531 | 34.07671 | 33089 ft | 452 kts | 66° |
| 2026-05-04 18:22 | 31.99770 | 34.11068 | 33360 ft | 451 kts | 66° |
| 2026-05-04 18:22 | 32.01007 | 34.14459 | 33632 ft | 451 kts | 66° |
| 2026-05-04 18:22 | 32.02243 | 34.17856 | 33903 ft | 450 kts | 67° |
| 2026-05-04 18:22 | 32.03475 | 34.21242 | 34158 ft | 450 kts | 67° |
| 2026-05-04 18:23 | 32.04689 | 34.24583 | 34412 ft | 449 kts | 67° |
| 2026-05-04 18:23 | 32.05917 | 34.27964 | 34657 ft | 449 kts | 67° |
| 2026-05-04 18:23 | 32.07142 | 34.31342 | 34899 ft | 448 kts | 67° |
| 2026-05-04 18:23 | 32.08365 | 34.34718 | 35132 ft | 448 kts | 67° |
| 2026-05-04 18:24 | 32.09586 | 34.38091 | 35373 ft | 447 kts | 67° |
| 2026-05-04 18:24 | 32.10807 | 34.41466 | 35590 ft | 447 kts | 67° |
| 2026-05-04 18:24 | 32.12023 | 34.44832 | 35808 ft | 446 kts | 67° |
| 2026-05-04 18:24 | 32.13238 | 34.48200 | 36020 ft | 446 kts | 67° |
| 2026-05-04 18:25 | 32.14401 | 34.51588 | 36210 ft | 446 kts | 71° |
| 2026-05-04 18:25 | 32.15238 | 34.55107 | 36393 ft | 445 kts | 79° |
| 2026-05-04 18:25 | 32.15641 | 34.58724 | 36575 ft | 445 kts | 87° |
| 2026-05-04 18:25 | 32.15568 | 34.62371 | 36741 ft | 445 kts | 96° |
| 2026-05-04 18:26 | 32.15121 | 34.65994 | 36901 ft | 445 kts | 99° |
| 2026-05-04 18:26 | 32.14567 | 34.69585 | 37082 ft | 445 kts | 101° |
| 2026-05-04 18:26 | 32.13963 | 34.73173 | 37248 ft | 445 kts | 101° |
| 2026-05-04 18:26 | 32.13342 | 34.76753 | 37412 ft | 445 kts | 101° |
| 2026-05-04 18:27 | 32.12722 | 34.80333 | 37568 ft | 446 kts | 101° |
| 2026-05-04 18:27 | 32.12107 | 34.83913 | 37724 ft | 446 kts | 101° |
| 2026-05-04 18:27 | 32.11499 | 34.87498 | 37865 ft | 446 kts | 101° |
| 2026-05-04 18:27 | 32.10730 | 34.91034 | 38009 ft | 446 kts | 107° |
| 2026-05-04 18:28 | 32.09799 | 34.94526 | 38158 ft | 446 kts | 108° |
| 2026-05-04 18:28 | 32.08832 | 34.97996 | 38294 ft | 446 kts | 108° |
| 2026-05-04 18:28 | 32.07843 | 35.01458 | 38436 ft | 446 kts | 109° |
| 2026-05-04 18:28 | 32.06842 | 35.04926 | 38541 ft | 447 kts | 109° |
| 2026-05-04 18:29 | 32.05839 | 35.08388 | 38646 ft | 447 kts | 109° |
| 2026-05-04 18:29 | 32.04833 | 35.11860 | 38780 ft | 448 kts | 109° |
| 2026-05-04 18:29 | 32.03828 | 35.15335 | 38886 ft | 448 kts | 109° |
| 2026-05-04 18:29 | 32.02837 | 35.18765 | 38979 ft | 449 kts | 109° |
| 2026-05-04 18:30 | 31.99779 | 35.29295 | 39002 ft | 457 kts | 109° |
| 2026-05-04 18:31 | 31.97742 | 35.36372 | 38998 ft | 455 kts | 109° |
| 2026-05-04 18:31 | 31.95719 | 35.43401 | 39003 ft | 451 kts | 109° |
| 2026-05-04 18:32 | 31.93796 | 35.50396 | 39002 ft | 448 kts | 102° |
| 2026-05-04 18:32 | 31.93120 | 35.57652 | 38997 ft | 446 kts | 93° |
| 2026-05-04 18:33 | 31.93542 | 35.64926 | 38993 ft | 447 kts | 80° |
| 2026-05-04 18:33 | 31.94693 | 35.72140 | 38994 ft | 450 kts | 78° |
| 2026-05-04 18:34 | 31.95933 | 35.79387 | 39001 ft | 453 kts | 78° |
| 2026-05-04 18:34 | 31.97161 | 35.86685 | 38998 ft | 455 kts | 79° |
| 2026-05-04 18:35 | 31.98366 | 35.94011 | 39000 ft | 456 kts | 79° |
| 2026-05-04 18:35 | 31.99559 | 36.01332 | 39000 ft | 455 kts | 79° |
| 2026-05-04 18:36 | 32.00558 | 36.08681 | 39008 ft | 454 kts | 83° |
| 2026-05-04 18:36 | 32.01218 | 36.16076 | 39001 ft | 454 kts | 84° |
| 2026-05-04 18:37 | 32.01821 | 36.23476 | 39001 ft | 454 kts | 84° |
| 2026-05-04 18:37 | 32.02416 | 36.30880 | 38999 ft | 454 kts | 84° |
| 2026-05-04 18:38 | 32.03008 | 36.38232 | 39007 ft | 454 kts | 84° |
| 2026-05-04 18:38 | 32.03608 | 36.45629 | 38997 ft | 453 kts | 84° |
| 2026-05-04 18:39 | 32.04201 | 36.53025 | 39000 ft | 453 kts | 84° |
| 2026-05-04 18:39 | 32.05300 | 36.60322 | 39001 ft | 453 kts | 71° |
| 2026-05-04 18:40 | 32.08163 | 36.66888 | 39000 ft | 452 kts | 54° |
| 2026-05-04 18:40 | 32.11947 | 36.72827 | 38998 ft | 453 kts | 52° |
| 2026-05-04 18:41 | 32.15867 | 36.78662 | 38998 ft | 454 kts | 51° |
| 2026-05-04 18:41 | 32.19786 | 36.84521 | 38998 ft | 455 kts | 52° |
| 2026-05-04 18:42 | 32.23689 | 36.90413 | 39000 ft | 456 kts | 52° |
| 2026-05-04 18:42 | 32.27578 | 36.96328 | 39000 ft | 456 kts | 52° |
| 2026-05-04 18:43 | 32.31465 | 37.02254 | 39004 ft | 456 kts | 52° |
| 2026-05-04 18:43 | 32.35349 | 37.08178 | 39000 ft | 456 kts | 52° |
| 2026-05-04 18:44 | 32.39229 | 37.14101 | 38998 ft | 455 kts | 52° |
| 2026-05-04 18:44 | 32.43101 | 37.20023 | 38998 ft | 455 kts | 52° |
| 2026-05-04 18:45 | 32.46966 | 37.25942 | 39001 ft | 454 kts | 52° |
| 2026-05-04 18:45 | 32.50829 | 37.31862 | 39002 ft | 454 kts | 52° |
| 2026-05-04 18:46 | 32.54694 | 37.37794 | 39006 ft | 455 kts | 52° |
| 2026-05-04 18:46 | 32.58531 | 37.43692 | 38998 ft | 455 kts | 52° |
| 2026-05-04 18:47 | 32.62396 | 37.49643 | 38998 ft | 455 kts | 52° |
| 2026-05-04 18:47 | 32.66255 | 37.55596 | 38998 ft | 455 kts | 52° |
| 2026-05-04 18:48 | 32.70106 | 37.61543 | 38998 ft | 454 kts | 52° |
| 2026-05-04 18:48 | 32.73815 | 37.67612 | 38998 ft | 454 kts | 60° |
| 2026-05-04 18:49 | 32.76362 | 37.74454 | 39001 ft | 453 kts | 69° |
| 2026-05-04 18:49 | 32.78127 | 37.80318 | 38996 ft | 454 kts | 71° |
| 2026-05-04 18:50 | 32.80167 | 37.87412 | 39007 ft | 454 kts | 71° |
| 2026-05-04 18:50 | 32.82170 | 37.94526 | 38997 ft | 454 kts | 71° |
| 2026-05-04 18:51 | 32.84163 | 38.01641 | 38998 ft | 454 kts | 71° |
| 2026-05-04 18:51 | 32.86166 | 38.08753 | 38999 ft | 454 kts | 71° |
| 2026-05-04 18:52 | 32.88188 | 38.15838 | 38998 ft | 450 kts | 71° |
| 2026-05-04 18:52 | 32.90202 | 38.22884 | 38995 ft | 450 kts | 71° |
| 2026-05-04 18:53 | 32.92209 | 38.29937 | 38997 ft | 450 kts | 71° |
| 2026-05-04 18:53 | 32.94210 | 38.36996 | 38999 ft | 450 kts | 71° |
| 2026-05-04 18:54 | 32.96207 | 38.44060 | 38998 ft | 450 kts | 71° |
| 2026-05-04 18:54 | 32.98202 | 38.51134 | 38999 ft | 450 kts | 71° |
| 2026-05-04 18:55 | 33.00192 | 38.58208 | 39004 ft | 451 kts | 71° |
| 2026-05-04 18:55 | 33.03171 | 38.68828 | 39000 ft | 450 kts | 71° |
| 2026-05-04 18:56 | 33.05156 | 38.75908 | 39002 ft | 450 kts | 71° |
| 2026-05-04 18:56 | 33.07131 | 38.82992 | 38999 ft | 450 kts | 71° |
| 2026-05-04 18:57 | 33.09082 | 38.90089 | 38996 ft | 450 kts | 74° |
| 2026-05-04 18:57 | 33.09975 | 38.97452 | 38998 ft | 450 kts | 88° |
| 2026-05-04 18:58 | 33.10084 | 39.04911 | 39001 ft | 450 kts | 90° |
| 2026-05-04 18:58 | 33.10058 | 39.12374 | 39008 ft | 450 kts | 90° |
| 2026-05-04 18:59 | 33.10028 | 39.19794 | 38998 ft | 450 kts | 90° |
| 2026-05-04 18:59 | 33.10014 | 39.27263 | 39000 ft | 450 kts | 90° |
| 2026-05-04 19:00 | 33.10004 | 39.34728 | 38998 ft | 450 kts | 90° |
| 2026-05-04 19:00 | 33.09991 | 39.42199 | 38997 ft | 450 kts | 90° |
| 2026-05-04 19:01 | 33.09973 | 39.49671 | 38992 ft | 450 kts | 90° |
| 2026-05-04 19:01 | 33.09951 | 39.57138 | 39001 ft | 450 kts | 90° |
| 2026-05-04 19:02 | 33.09923 | 39.64607 | 39001 ft | 450 kts | 90° |
| 2026-05-04 19:02 | 33.09891 | 39.72078 | 38997 ft | 450 kts | 90° |
| 2026-05-04 19:03 | 33.09855 | 39.79546 | 38996 ft | 450 kts | 90° |
| 2026-05-04 19:03 | 33.09814 | 39.87016 | 38996 ft | 450 kts | 90° |
| 2026-05-04 19:04 | 33.09769 | 39.94484 | 39007 ft | 450 kts | 90° |
| 2026-05-04 19:04 | 33.09718 | 40.01945 | 38998 ft | 450 kts | 90° |
| 2026-05-04 19:05 | 33.09661 | 40.09409 | 38994 ft | 450 kts | 90° |
| 2026-05-04 19:05 | 33.09600 | 40.16821 | 38996 ft | 450 kts | 90° |
| 2026-05-04 19:06 | 33.09535 | 40.24280 | 39005 ft | 449 kts | 90° |
| 2026-05-04 19:06 | 33.09466 | 40.31729 | 38996 ft | 449 kts | 90° |
| 2026-05-04 19:07 | 33.09393 | 40.39179 | 39005 ft | 449 kts | 90° |
| 2026-05-04 19:07 | 33.09315 | 40.46627 | 38997 ft | 449 kts | 91° |
| 2026-05-04 19:08 | 33.09232 | 40.54075 | 38992 ft | 449 kts | 91° |
| 2026-05-04 19:08 | 33.09145 | 40.61523 | 38999 ft | 449 kts | 91° |
| 2026-05-04 19:09 | 33.09054 | 40.68968 | 38997 ft | 449 kts | 91° |
| 2026-05-04 19:09 | 33.08958 | 40.76417 | 39005 ft | 449 kts | 91° |
| 2026-05-04 19:10 | 33.08858 | 40.83862 | 38994 ft | 449 kts | 91° |
| 2026-05-04 19:10 | 33.08753 | 40.91303 | 39007 ft | 449 kts | 91° |
| 2026-05-04 19:11 | 33.08644 | 40.98741 | 39005 ft | 449 kts | 91° |
| 2026-05-04 19:11 | 33.08531 | 41.06176 | 39006 ft | 449 kts | 91° |
| 2026-05-04 19:12 | 33.09008 | 41.17280 | 39003 ft | 448 kts | 76° |
| 2026-05-04 19:13 | 33.11374 | 41.24111 | 38998 ft | 447 kts | 60° |
| 2026-05-04 19:13 | 33.14600 | 41.30470 | 39001 ft | 448 kts | 58° |
| 2026-05-04 19:14 | 33.17948 | 41.36747 | 38998 ft | 448 kts | 57° |
| 2026-05-04 19:14 | 33.21280 | 41.43035 | 38998 ft | 448 kts | 58° |
| 2026-05-04 19:15 | 33.24587 | 41.49347 | 38998 ft | 448 kts | 58° |
| 2026-05-04 19:15 | 33.27879 | 41.55668 | 39001 ft | 448 kts | 58° |
| 2026-05-04 19:16 | 33.31167 | 41.61995 | 38999 ft | 448 kts | 58° |
| 2026-05-04 19:16 | 33.34450 | 41.68320 | 38998 ft | 448 kts | 58° |
| 2026-05-04 19:17 | 33.37192 | 41.74981 | 39004 ft | 447 kts | 72° |
| 2026-05-04 19:17 | 33.38127 | 41.82296 | 39010 ft | 446 kts | 89° |
| 2026-05-04 19:18 | 33.38014 | 41.89728 | 39001 ft | 447 kts | 92° |
| 2026-05-04 19:18 | 33.37734 | 41.97165 | 39003 ft | 447 kts | 92° |
| 2026-05-04 19:19 | 33.37458 | 42.04602 | 38996 ft | 447 kts | 92° |
| 2026-05-04 19:19 | 33.37207 | 42.12037 | 39001 ft | 447 kts | 92° |
| 2026-05-04 19:20 | 33.36965 | 42.19424 | 39006 ft | 447 kts | 92° |
| 2026-05-04 19:20 | 33.36719 | 42.26859 | 39002 ft | 447 kts | 92° |
| 2026-05-04 19:21 | 33.36467 | 42.34286 | 39006 ft | 447 kts | 92° |
| 2026-05-04 19:21 | 33.36210 | 42.41711 | 38998 ft | 447 kts | 92° |
| 2026-05-04 19:22 | 33.35948 | 42.49135 | 38997 ft | 447 kts | 92° |
| 2026-05-04 19:22 | 33.35682 | 42.56557 | 39006 ft | 446 kts | 92° |
| 2026-05-04 19:23 | 33.35412 | 42.63970 | 38996 ft | 446 kts | 92° |
| 2026-05-04 19:23 | 33.35138 | 42.71385 | 39006 ft | 446 kts | 92° |
| 2026-05-04 19:24 | 33.34840 | 42.78791 | 38997 ft | 446 kts | 94° |
| 2026-05-04 19:24 | 33.34401 | 42.86186 | 39002 ft | 446 kts | 94° |
| 2026-05-04 19:25 | 33.33929 | 42.93575 | 38995 ft | 446 kts | 94° |
| 2026-05-04 19:25 | 33.33474 | 43.00963 | 38998 ft | 446 kts | 94° |
| 2026-05-04 19:26 | 33.33028 | 43.08337 | 39006 ft | 446 kts | 94° |
| 2026-05-04 19:26 | 33.32580 | 43.15723 | 39001 ft | 446 kts | 94° |
| 2026-05-04 19:27 | 33.32128 | 43.23114 | 38997 ft | 445 kts | 94° |
| 2026-05-04 19:27 | 33.31707 | 43.30503 | 38999 ft | 445 kts | 94° |
| 2026-05-04 19:28 | 33.31303 | 43.37839 | 39006 ft | 445 kts | 94° |
| 2026-05-04 19:28 | 33.30886 | 43.45275 | 39002 ft | 445 kts | 94° |
| 2026-05-04 19:29 | 33.30467 | 43.52607 | 38999 ft | 445 kts | 94° |
| 2026-05-04 19:29 | 33.30039 | 43.59991 | 38998 ft | 445 kts | 94° |
| 2026-05-04 19:30 | 33.29606 | 43.67372 | 38998 ft | 445 kts | 94° |
| 2026-05-04 19:30 | 33.29169 | 43.74760 | 39001 ft | 445 kts | 94° |
| 2026-05-04 19:31 | 33.28728 | 43.82139 | 39001 ft | 445 kts | 94° |
| 2026-05-04 19:31 | 33.28283 | 43.89518 | 38998 ft | 445 kts | 94° |
| 2026-05-04 19:32 | 33.27833 | 43.96897 | 39007 ft | 445 kts | 94° |
| 2026-05-04 19:32 | 33.27380 | 44.04271 | 38993 ft | 445 kts | 94° |
| 2026-05-04 19:33 | 33.26921 | 44.11648 | 38997 ft | 445 kts | 94° |
| 2026-05-04 19:33 | 33.26458 | 44.19026 | 38995 ft | 445 kts | 94° |
| 2026-05-04 19:34 | 33.26446 | 44.26404 | 38994 ft | 445 kts | 82° |
| 2026-05-04 19:34 | 33.27441 | 44.33697 | 39000 ft | 445 kts | 79° |
| 2026-05-04 19:35 | 33.28606 | 44.40958 | 38997 ft | 445 kts | 79° |
| 2026-05-04 19:35 | 33.29787 | 44.48222 | 38995 ft | 445 kts | 79° |
| 2026-05-04 19:36 | 33.30947 | 44.55492 | 39001 ft | 445 kts | 79° |
| 2026-05-04 19:36 | 33.31899 | 44.61534 | 39000 ft | 445 kts | 79° |
| 2026-05-04 19:37 | 33.33388 | 44.69948 | 39000 ft | 445 kts | 73° |
| 2026-05-04 19:37 | 33.35238 | 44.77010 | 39002 ft | 445 kts | 72° |
| 2026-05-04 19:38 | 33.36451 | 44.83035 | 38996 ft | 445 kts | 79° |
| 2026-05-04 19:38 | 33.37565 | 44.90313 | 39002 ft | 445 kts | 80° |
| 2026-05-04 19:39 | 33.38595 | 44.97566 | 38995 ft | 445 kts | 80° |
| 2026-05-04 19:39 | 33.39627 | 45.04919 | 39001 ft | 445 kts | 80° |
| 2026-05-04 19:40 | 33.40649 | 45.12177 | 39008 ft | 445 kts | 80° |
| 2026-05-04 19:40 | 33.41677 | 45.19482 | 38995 ft | 445 kts | 80° |
| 2026-05-04 19:41 | 33.42703 | 45.26788 | 38994 ft | 445 kts | 80° |
| 2026-05-04 19:41 | 33.43724 | 45.34096 | 38995 ft | 445 kts | 81° |
| 2026-05-04 19:42 | 33.44741 | 45.41404 | 38998 ft | 445 kts | 81° |
| 2026-05-04 19:42 | 33.45753 | 45.48720 | 39000 ft | 445 kts | 81° |
| 2026-05-04 19:43 | 33.46760 | 45.56033 | 38997 ft | 445 kts | 81° |
| 2026-05-04 19:43 | 33.47764 | 45.63353 | 39001 ft | 445 kts | 81° |
| 2026-05-04 19:44 | 33.48763 | 45.70672 | 38995 ft | 445 kts | 81° |
| 2026-05-04 19:44 | 33.49759 | 45.77995 | 39003 ft | 445 kts | 81° |
| 2026-05-04 19:45 | 33.50751 | 45.85325 | 38996 ft | 446 kts | 81° |
| 2026-05-04 19:45 | 33.51739 | 45.92662 | 38997 ft | 446 kts | 81° |
| 2026-05-04 19:46 | 33.52676 | 46.00019 | 39002 ft | 447 kts | 81° |
| 2026-05-04 19:46 | 33.53595 | 46.07391 | 39007 ft | 448 kts | 81° |
| 2026-05-04 19:47 | 33.54517 | 46.14777 | 38998 ft | 449 kts | 81° |
| 2026-05-04 19:47 | 33.55444 | 46.22189 | 38996 ft | 450 kts | 81° |
| 2026-05-04 19:48 | 33.56372 | 46.29626 | 39001 ft | 453 kts | 81° |
| 2026-05-04 19:48 | 33.57358 | 46.37090 | 38995 ft | 454 kts | 77° |
| 2026-05-04 19:49 | 33.59613 | 46.44133 | 38999 ft | 454 kts | 59° |
| 2026-05-04 19:49 | 33.63146 | 46.50421 | 38997 ft | 457 kts | 54° |
| 2026-05-04 19:50 | 33.66917 | 46.56589 | 39000 ft | 460 kts | 53° |
| 2026-05-04 19:50 | 33.70673 | 46.62699 | 38997 ft | 455 kts | 53° |
| 2026-05-04 19:51 | 33.74396 | 46.68821 | 39000 ft | 452 kts | 54° |
| 2026-05-04 19:51 | 33.78093 | 46.74944 | 38997 ft | 454 kts | 54° |
| 2026-05-04 19:52 | 33.81807 | 46.81110 | 39000 ft | 455 kts | 54° |
| 2026-05-04 19:52 | 33.85517 | 46.87281 | 39004 ft | 455 kts | 54° |
| 2026-05-04 19:53 | 33.89228 | 46.93462 | 39000 ft | 456 kts | 54° |
| 2026-05-04 19:53 | 33.92946 | 46.99663 | 39000 ft | 457 kts | 54° |
| 2026-05-04 19:54 | 33.96658 | 47.05867 | 39008 ft | 456 kts | 54° |
| 2026-05-04 19:54 | 33.99888 | 47.12433 | 39003 ft | 455 kts | 62° |
| 2026-05-04 19:55 | 34.02851 | 47.19179 | 38999 ft | 456 kts | 62° |
| 2026-05-04 19:55 | 34.05772 | 47.25969 | 38998 ft | 456 kts | 63° |
| 2026-05-04 19:56 | 34.08693 | 47.32767 | 38996 ft | 457 kts | 63° |
| 2026-05-04 19:56 | 34.11632 | 47.39594 | 39001 ft | 459 kts | 62° |
| 2026-05-04 19:57 | 34.14563 | 47.46409 | 38997 ft | 456 kts | 63° |
| 2026-05-04 19:57 | 34.17461 | 47.53158 | 39007 ft | 456 kts | 63° |
| 2026-05-04 19:58 | 34.20379 | 47.59969 | 39000 ft | 457 kts | 63° |
| 2026-05-04 19:58 | 34.23298 | 47.66797 | 39001 ft | 458 kts | 63° |
| 2026-05-04 19:59 | 34.26221 | 47.73650 | 38997 ft | 459 kts | 63° |
| 2026-05-04 19:59 | 34.29144 | 47.80514 | 39000 ft | 459 kts | 63° |
| 2026-05-04 20:00 | 34.32063 | 47.87382 | 38997 ft | 459 kts | 63° |
| 2026-05-04 20:00 | 34.34974 | 47.94244 | 39004 ft | 458 kts | 63° |
| 2026-05-04 20:01 | 34.37875 | 48.01098 | 38999 ft | 456 kts | 63° |
| 2026-05-04 20:01 | 34.40764 | 48.07937 | 39002 ft | 457 kts | 63° |
| 2026-05-04 20:02 | 34.43656 | 48.14794 | 39008 ft | 457 kts | 63° |
| 2026-05-04 20:02 | 34.46545 | 48.21659 | 39007 ft | 457 kts | 63° |
| 2026-05-04 20:03 | 34.49426 | 48.28520 | 38997 ft | 456 kts | 63° |
| 2026-05-04 20:03 | 34.52301 | 48.35382 | 38997 ft | 456 kts | 63° |
| 2026-05-04 20:03 | 34.53740 | 48.38819 | 38862 ft | 458 kts | 63° |
| 2026-05-04 20:04 | 34.55180 | 48.42264 | 38459 ft | 458 kts | 63° |
| 2026-05-04 20:04 | 34.56618 | 48.45708 | 38073 ft | 457 kts | 63° |
| 2026-05-04 20:04 | 34.57985 | 48.49184 | 37697 ft | 457 kts | 68° |
| 2026-05-04 20:04 | 34.59071 | 48.52810 | 37326 ft | 458 kts | 71° |
| 2026-05-04 20:05 | 34.60085 | 48.56498 | 36954 ft | 462 kts | 72° |
| 2026-05-04 20:05 | 34.61068 | 48.60226 | 36586 ft | 464 kts | 72° |
| 2026-05-04 20:05 | 34.62032 | 48.63963 | 36215 ft | 464 kts | 72° |
| 2026-05-04 20:05 | 34.62987 | 48.67691 | 35838 ft | 462 kts | 72° |
| 2026-05-04 20:06 | 34.63940 | 48.71415 | 35469 ft | 461 kts | 72° |
| 2026-05-04 20:06 | 34.64891 | 48.75129 | 35100 ft | 460 kts | 72° |
| 2026-05-04 20:06 | 34.65830 | 48.78786 | 34734 ft | 460 kts | 72° |
| 2026-05-04 20:06 | 34.66785 | 48.82502 | 34345 ft | 461 kts | 72° |
| 2026-05-04 20:07 | 34.67740 | 48.86216 | 33927 ft | 461 kts | 72° |
| 2026-05-04 20:07 | 34.68696 | 48.89936 | 33504 ft | 461 kts | 72° |
| 2026-05-04 20:07 | 34.69650 | 48.93657 | 33083 ft | 462 kts | 72° |
| 2026-05-04 20:07 | 34.70606 | 48.97388 | 32659 ft | 462 kts | 72° |
| 2026-05-04 20:08 | 34.71561 | 49.01120 | 32238 ft | 463 kts | 72° |
| 2026-05-04 20:08 | 34.72513 | 49.04851 | 31814 ft | 463 kts | 73° |
| 2026-05-04 20:08 | 34.73468 | 49.08594 | 31387 ft | 463 kts | 73° |
| 2026-05-04 20:08 | 34.74417 | 49.12320 | 30963 ft | 461 kts | 73° |
| 2026-05-04 20:09 | 34.75361 | 49.16032 | 30542 ft | 458 kts | 73° |
| 2026-05-04 20:09 | 34.76296 | 49.19716 | 30118 ft | 454 kts | 73° |
| 2026-05-04 20:09 | 34.77224 | 49.23376 | 29691 ft | 452 kts | 73° |
| 2026-05-04 20:09 | 34.78145 | 49.27017 | 29261 ft | 449 kts | 73° |
| 2026-05-04 20:10 | 34.79061 | 49.30638 | 28830 ft | 447 kts | 73° |
| 2026-05-04 20:10 | 34.79972 | 49.34246 | 28405 ft | 445 kts | 73° |
| 2026-05-04 20:10 | 34.80878 | 49.37840 | 27982 ft | 444 kts | 73° |
| 2026-05-04 20:10 | 34.81780 | 49.41425 | 27559 ft | 441 kts | 73° |
| 2026-05-04 20:11 | 34.82674 | 49.44981 | 27135 ft | 438 kts | 73° |
| 2026-05-04 20:11 | 34.83560 | 49.48508 | 26710 ft | 434 kts | 73° |
| 2026-05-04 20:11 | 34.84437 | 49.52005 | 26285 ft | 430 kts | 73° |
| 2026-05-04 20:11 | 34.85304 | 49.55468 | 25859 ft | 426 kts | 73° |
| 2026-05-04 20:12 | 34.86162 | 49.58903 | 25440 ft | 423 kts | 73° |
| 2026-05-04 20:12 | 34.86921 | 49.62357 | 25002 ft | 420 kts | 76° |
| 2026-05-04 20:12 | 34.87597 | 49.65804 | 24573 ft | 417 kts | 76° |
| 2026-05-04 20:12 | 34.88269 | 49.69220 | 24158 ft | 414 kts | 76° |
| 2026-05-04 20:13 | 34.88945 | 49.72618 | 23735 ft | 411 kts | 76° |
| 2026-05-04 20:13 | 34.89620 | 49.75981 | 23307 ft | 408 kts | 76° |
| 2026-05-04 20:13 | 34.90294 | 49.79326 | 22877 ft | 405 kts | 76° |
| 2026-05-04 20:13 | 34.90964 | 49.82645 | 22457 ft | 402 kts | 76° |
| 2026-05-04 20:14 | 34.91631 | 49.85948 | 22030 ft | 400 kts | 76° |
| 2026-05-04 20:14 | 34.92293 | 49.89228 | 21621 ft | 398 kts | 76° |
| 2026-05-04 20:14 | 34.92940 | 49.92438 | 21187 ft | 396 kts | 76° |
| 2026-05-04 20:14 | 34.93595 | 49.95689 | 20761 ft | 394 kts | 76° |
| 2026-05-04 20:15 | 34.94245 | 49.98923 | 20339 ft | 392 kts | 76° |
| 2026-05-04 20:15 | 34.94890 | 50.02133 | 19913 ft | 388 kts | 76° |
| 2026-05-04 20:15 | 34.95520 | 50.05275 | 19493 ft | 385 kts | 76° |
| 2026-05-04 20:15 | 34.96154 | 50.08441 | 19055 ft | 383 kts | 76° |
| 2026-05-04 20:16 | 34.96781 | 50.11576 | 18650 ft | 379 kts | 76° |
| 2026-05-04 20:16 | 34.97403 | 50.14688 | 18264 ft | 376 kts | 76° |
| 2026-05-04 20:16 | 34.98019 | 50.17777 | 17895 ft | 374 kts | 76° |
| 2026-05-04 20:16 | 34.98630 | 50.20847 | 17524 ft | 372 kts | 76° |
| 2026-05-04 20:17 | 34.99238 | 50.23903 | 17147 ft | 369 kts | 76° |
| 2026-05-04 20:17 | 34.99841 | 50.26939 | 16770 ft | 367 kts | 76° |
| 2026-05-04 20:17 | 35.00439 | 50.29956 | 16397 ft | 365 kts | 76° |
| 2026-05-04 20:17 | 35.01035 | 50.32967 | 16018 ft | 363 kts | 76° |
| 2026-05-04 20:18 | 35.01638 | 50.35948 | 15645 ft | 361 kts | 75° |
| 2026-05-04 20:18 | 35.02487 | 50.38796 | 15269 ft | 359 kts | 66° |
| 2026-05-04 20:18 | 35.03517 | 50.41560 | 14893 ft | 357 kts | 65° |
| 2026-05-04 20:18 | 35.04564 | 50.44295 | 14519 ft | 355 kts | 65° |
| 2026-05-04 20:19 | 35.05604 | 50.47015 | 14138 ft | 353 kts | 65° |
| 2026-05-04 20:19 | 35.06635 | 50.49724 | 13765 ft | 351 kts | 65° |
| 2026-05-04 20:19 | 35.07660 | 50.52422 | 13392 ft | 349 kts | 65° |
| 2026-05-04 20:19 | 35.08678 | 50.55108 | 13006 ft | 348 kts | 65° |
| 2026-05-04 20:20 | 35.09690 | 50.57780 | 12641 ft | 346 kts | 65° |
| 2026-05-04 20:20 | 35.10694 | 50.60439 | 12272 ft | 344 kts | 65° |
| 2026-05-04 20:20 | 35.11693 | 50.63083 | 11903 ft | 342 kts | 65° |
| 2026-05-04 20:20 | 35.12688 | 50.65719 | 11515 ft | 340 kts | 65° |
| 2026-05-04 20:21 | 35.13674 | 50.68335 | 11179 ft | 338 kts | 65° |
| 2026-05-04 20:21 | 35.14656 | 50.70941 | 10929 ft | 337 kts | 65° |
| 2026-05-04 20:21 | 35.16585 | 50.76069 | 10540 ft | 324 kts | 65° |
| 2026-05-04 20:22 | 35.17514 | 50.78540 | 10338 ft | 316 kts | 65° |
| 2026-05-04 20:22 | 35.18419 | 50.80951 | 10129 ft | 308 kts | 65° |
| 2026-05-04 20:22 | 35.19302 | 50.83303 | 9924 ft | 302 kts | 65° |
| 2026-05-04 20:22 | 35.20168 | 50.85615 | 9725 ft | 295 kts | 65° |
| 2026-05-04 20:23 | 35.21015 | 50.87875 | 9514 ft | 290 kts | 65° |
| 2026-05-04 20:23 | 35.21846 | 50.90094 | 9324 ft | 285 kts | 65° |
| 2026-05-04 20:23 | 35.22667 | 50.92289 | 9123 ft | 283 kts | 65° |
| 2026-05-04 20:23 | 35.23486 | 50.94478 | 8918 ft | 282 kts | 65° |
| 2026-05-04 20:24 | 35.24301 | 50.96660 | 8716 ft | 282 kts | 65° |
| 2026-05-04 20:24 | 35.25112 | 50.98833 | 8513 ft | 280 kts | 65° |
| 2026-05-04 20:24 | 35.25921 | 51.01001 | 8312 ft | 279 kts | 65° |
| 2026-05-04 20:24 | 35.26726 | 51.03158 | 8116 ft | 278 kts | 65° |
| 2026-05-04 20:25 | 35.27258 | 51.04586 | 7992 ft | 278 kts | 65° |
| 2026-05-04 20:25 | 35.28219 | 51.07474 | 7718 ft | 277 kts | 76° |
| 2026-05-04 20:25 | 35.28442 | 51.09801 | 7506 ft | 275 kts | 89° |
| 2026-05-04 20:25 | 35.28454 | 51.12139 | 7318 ft | 275 kts | 90° |
| 2026-05-04 20:26 | 35.28443 | 51.14471 | 7118 ft | 274 kts | 90° |
| 2026-05-04 20:26 | 35.28435 | 51.16799 | 6925 ft | 273 kts | 90° |
| 2026-05-04 20:26 | 35.28432 | 51.18368 | 6778 ft | 272 kts | 90° |
| 2026-05-04 20:26 | 35.28429 | 51.20677 | 6580 ft | 269 kts | 90° |
| 2026-05-04 20:27 | 35.28428 | 51.22940 | 6445 ft | 261 kts | 90° |
| 2026-05-04 20:27 | 35.28427 | 51.25091 | 6387 ft | 251 kts | 90° |
| 2026-05-04 20:27 | 35.28426 | 51.27210 | 6325 ft | 241 kts | 90° |
| 2026-05-04 20:27 | 35.28425 | 51.29194 | 6261 ft | 232 kts | 90° |
| 2026-05-04 20:28 | 35.28424 | 51.31127 | 6196 ft | 223 kts | 90° |
| 2026-05-04 20:28 | 35.28423 | 51.32989 | 6139 ft | 217 kts | 90° |
| 2026-05-04 20:28 | 35.28421 | 51.34832 | 6088 ft | 216 kts | 90° |
| 2026-05-04 20:28 | 35.28517 | 51.36664 | 6032 ft | 216 kts | 78° |
| 2026-05-04 20:29 | 35.29129 | 51.38321 | 5979 ft | 215 kts | 50° |
| 2026-05-04 20:29 | 35.30297 | 51.39421 | 5923 ft | 214 kts | 22° |
| 2026-05-04 20:29 | 35.31735 | 51.39724 | 5880 ft | 207 kts | 356° |
| 2026-05-04 20:29 | 35.33122 | 51.39462 | 5833 ft | 196 kts | 344° |
| 2026-05-04 20:30 | 35.34308 | 51.38795 | 5794 ft | 183 kts | 326° |
| 2026-05-04 20:30 | 35.35195 | 51.37757 | 5722 ft | 174 kts | 305° |
| 2026-05-04 20:30 | 35.35748 | 51.36458 | 5668 ft | 170 kts | 291° |
| 2026-05-04 20:30 | 35.36138 | 51.35137 | 5630 ft | 161 kts | 289° |
| 2026-05-04 20:31 | 35.36500 | 51.33851 | 5575 ft | 160 kts | 289° |
| 2026-05-04 20:31 | 35.36860 | 51.32557 | 5529 ft | 161 kts | 289° |
| 2026-05-04 20:31 | 35.37223 | 51.31262 | 5482 ft | 161 kts | 289° |
| 2026-05-04 20:31 | 35.37588 | 51.29967 | 5407 ft | 162 kts | 289° |
| 2026-05-04 20:32 | 35.37951 | 51.28671 | 5242 ft | 158 kts | 289° |
| 2026-05-04 20:32 | 35.38099 | 51.28145 | 5200 ft | 158 kts | 289° |
| 2026-05-04 20:32 | 35.38121 | 51.28066 | 5196 ft | 157 kts | 289° |
| 2026-05-04 20:32 | 35.38474 | 51.26798 | 4990 ft | 157 kts | 289° |
| 2026-05-04 20:33 | 35.38824 | 51.25536 | 4784 ft | 156 kts | 289° |
| 2026-05-04 20:33 | 35.39174 | 51.24279 | 4574 ft | 156 kts | 289° |
| 2026-05-04 20:33 | 35.39523 | 51.23026 | 4352 ft | 155 kts | 289° |
| 2026-05-04 20:33 | 35.39869 | 51.21780 | 4162 ft | 155 kts | 289° |
| 2026-05-04 20:34 | 35.40218 | 51.20528 | 3956 ft | 154 kts | 289° |
| 2026-05-04 20:34 | 35.40563 | 51.19285 | 3751 ft | 154 kts | 289° |
| 2026-05-04 20:34 | 35.40909 | 51.18044 | 3545 ft | 153 kts | 289° |
| 2026-05-04 20:34 | 35.41252 | 51.16811 | 3358 ft | 152 kts | 289° |
| 2026-05-04 20:35 | 35.41591 | 51.15599 | 3291 ft | 150 kts | 289° |
| 2026-05-04 20:35 | 35.41877 | 51.14577 | 3291 ft | 89 kts | 289° |
| 2026-05-04 20:35 | 35.41920 | 51.14216 | 3290 ft | 25 kts | 264° |
| 2026-05-04 20:35 | 35.41892 | 51.14009 | 3291 ft | 24 kts | 258° |
| 2026-05-04 20:36 | 35.41788 | 51.13911 | 3291 ft | 18 kts | 159° |
| 2026-05-04 20:36 | 35.41748 | 51.13990 | 3291 ft | 10 kts | 112° |
| 2026-05-04 20:36 | 35.41722 | 51.14069 | 3291 ft | 11 kts | 112° |
| 2026-05-04 20:36 | 35.41691 | 51.14163 | 3289 ft | 13 kts | 112° |
| 2026-05-04 20:37 | 35.41653 | 51.14268 | 3289 ft | 13 kts | 121° |
| 2026-05-04 20:37 | 35.41581 | 51.14283 | 3291 ft | 10 kts | 199° |
| 2026-05-04 20:37 | 35.41514 | 51.14259 | 3291 ft | 10 kts | 184° |
| 2026-05-04 20:37 | 35.41461 | 51.14299 | 3291 ft | 7 kts | 114° |
| 2026-05-04 20:38 | 35.41428 | 51.14414 | 3289 ft | 31 kts | 110° |
| 2026-05-04 20:38 | 35.41332 | 51.14741 | 3282 ft | 43 kts | 110° |
| 2026-05-04 20:38 | 35.41239 | 51.15087 | 3275 ft | 42 kts | 108° |
| 2026-05-04 20:38 | 35.41150 | 51.15413 | 3273 ft | 40 kts | 109° |
| 2026-05-04 20:39 | 35.41079 | 51.15660 | 3271 ft | 14 kts | 134° |
| 2026-05-04 20:39 | 35.41039 | 51.15658 | 3269 ft | 5 kts | 201° |
| 2026-05-04 20:39 | 35.41006 | 51.15644 | 3272 ft | 0 kts | 198° |